createdAt,value
2018-08-31T00:00:10.480Z,96011.00
2018-08-31T00:00:43.011Z,96011.00
2018-08-31T00:01:15.161Z,96013.00
2018-08-31T00:01:47.261Z,96011.00
2018-08-31T00:02:19.357Z,96016.00
2018-08-31T00:02:51.460Z,96010.00
2018-08-31T00:03:23.814Z,96010.00
2018-08-31T00:03:55.896Z,96010.00
2018-08-31T00:04:28.080Z,96009.00
2018-08-31T00:05:00.223Z,96009.00
2018-08-31T00:05:32.305Z,96013.00
2018-08-31T00:06:04.548Z,96011.00
2018-08-31T00:06:36.614Z,96009.00
2018-08-31T00:07:08.997Z,96007.00
2018-08-31T00:07:41.154Z,96010.00
2018-08-31T00:08:13.240Z,96012.00
2018-08-31T00:08:45.365Z,96003.00
2018-08-31T00:09:17.457Z,96007.00
2018-08-31T00:09:49.733Z,96012.00
2018-08-31T00:10:21.815Z,96011.00
2018-08-31T00:10:54.008Z,96013.00
2018-08-31T00:11:26.085Z,96009.00
2018-08-31T00:11:58.166Z,96007.00
2018-08-31T00:12:30.262Z,96007.00
2018-08-31T00:13:02.367Z,96008.00
2018-08-31T00:13:34.536Z,96007.00
2018-08-31T00:14:06.672Z,96008.00
2018-08-31T00:14:38.731Z,96008.00
2018-08-31T00:15:10.801Z,96002.00
2018-08-31T00:15:42.878Z,96008.00
2018-08-31T00:16:14.962Z,96005.00
2018-08-31T00:16:47.061Z,96008.00
2018-08-31T00:17:19.166Z,96007.00
2018-08-31T00:17:51.308Z,96003.00
2018-08-31T00:18:23.573Z,96007.00
2018-08-31T00:18:55.769Z,96004.00
2018-08-31T00:19:27.859Z,96007.00
2018-08-31T00:19:59.942Z,96004.00
2018-08-31T00:20:32.137Z,95998.00
2018-08-31T00:21:04.345Z,96002.00
2018-08-31T00:21:36.444Z,95999.00
2018-08-31T00:22:08.535Z,96002.00
2018-08-31T00:22:40.590Z,96002.00
2018-08-31T00:23:12.736Z,96003.00
2018-08-31T00:23:44.822Z,96002.00
2018-08-31T00:24:17.071Z,96001.00
2018-08-31T00:24:49.257Z,96001.00
2018-08-31T00:25:21.470Z,95996.00
2018-08-31T00:25:53.620Z,95996.00
2018-08-31T00:26:25.730Z,95996.00
2018-08-31T00:26:57.873Z,95994.00
2018-08-31T00:27:29.974Z,95990.00
2018-08-31T00:28:02.112Z,95991.00
2018-08-31T00:28:34.221Z,95987.00
2018-08-31T00:29:06.361Z,95981.00
2018-08-31T00:29:38.473Z,95984.00
2018-08-31T00:30:10.557Z,95981.00
2018-08-31T00:30:42.640Z,95979.00
2018-08-31T00:31:14.933Z,95980.00
2018-08-31T00:31:46.995Z,95980.00
2018-08-31T00:32:19.412Z,95978.00
2018-08-31T00:32:51.634Z,95978.00
2018-08-31T00:33:23.766Z,95977.00
2018-08-31T00:33:55.866Z,95975.00
2018-08-31T00:34:28.132Z,95977.00
2018-08-31T00:35:00.348Z,95978.00
2018-08-31T00:35:32.493Z,95974.00
2018-08-31T00:36:04.574Z,95974.00
2018-08-31T00:36:36.677Z,95977.00
2018-08-31T00:37:08.761Z,95979.00
2018-08-31T00:37:41.055Z,95975.00
2018-08-31T00:38:13.104Z,95974.00
2018-08-31T00:38:45.213Z,95977.00
2018-08-31T00:39:17.331Z,95973.00
2018-08-31T00:39:49.405Z,95975.00
2018-08-31T00:40:21.544Z,95975.00
2018-08-31T00:40:53.665Z,95975.00
2018-08-31T00:41:26.086Z,95972.00
2018-08-31T00:41:58.160Z,95975.00
2018-08-31T00:42:30.417Z,95972.00
2018-08-31T00:43:02.515Z,95973.00
2018-08-31T00:43:34.609Z,95969.00
2018-08-31T00:44:06.708Z,95968.00
2018-08-31T00:44:38.829Z,95969.00
2018-08-31T00:45:10.933Z,95970.00
2018-08-31T00:45:43.052Z,95965.00
2018-08-31T00:46:15.273Z,95964.00
2018-08-31T00:46:47.358Z,95965.00
2018-08-31T00:47:19.643Z,95963.00
2018-08-31T00:47:51.729Z,95965.00
2018-08-31T00:48:23.931Z,95967.00
2018-08-31T00:48:56.201Z,95964.00
2018-08-31T00:49:28.265Z,95961.00
2018-08-31T00:50:00.377Z,95966.00
2018-08-31T00:50:32.526Z,95965.00
2018-08-31T00:51:04.904Z,95968.00
2018-08-31T00:51:37.126Z,95965.00
2018-08-31T00:52:09.478Z,95970.00
2018-08-31T00:52:41.671Z,95965.00
2018-08-31T00:53:13.783Z,95968.00
2018-08-31T00:53:45.986Z,95962.00
2018-08-31T00:54:18.409Z,95963.00
2018-08-31T00:54:50.668Z,95966.00
2018-08-31T00:55:22.773Z,95964.00
2018-08-31T00:55:54.978Z,95963.00
2018-08-31T00:56:27.225Z,95964.00
2018-08-31T00:56:59.508Z,95968.00
2018-08-31T00:57:31.606Z,95958.00
2018-08-31T00:58:03.929Z,95962.00
2018-08-31T00:58:35.976Z,95965.00
2018-08-31T00:59:08.049Z,95960.00
2018-08-31T00:59:40.142Z,95955.00
2018-08-31T01:00:12.343Z,95963.00
2018-08-31T01:00:44.423Z,95960.00
2018-08-31T01:01:16.540Z,95964.00
2018-08-31T01:01:48.803Z,95967.00
2018-08-31T01:02:20.957Z,95969.00
2018-08-31T01:02:53.095Z,95967.00
2018-08-31T01:03:25.267Z,95964.00
2018-08-31T01:03:57.355Z,95967.00
2018-08-31T01:04:29.465Z,95963.00
2018-08-31T01:05:01.540Z,95969.00
2018-08-31T01:05:33.775Z,95967.00
2018-08-31T01:06:05.870Z,95967.00
2018-08-31T01:06:37.920Z,95963.00
2018-08-31T01:07:09.994Z,95967.00
2018-08-31T01:07:42.192Z,95967.00
2018-08-31T01:08:14.283Z,95965.00
2018-08-31T01:08:46.382Z,95970.00
2018-08-31T01:09:18.446Z,95967.00
2018-08-31T01:09:50.527Z,95967.00
2018-08-31T01:10:22.608Z,95965.00
2018-08-31T01:10:54.732Z,95964.00
2018-08-31T01:11:26.845Z,95965.00
2018-08-31T01:11:58.930Z,95964.00
2018-08-31T01:12:31.001Z,95962.00
2018-08-31T01:13:03.282Z,95963.00
2018-08-31T01:13:35.384Z,95963.00
2018-08-31T01:14:07.450Z,95963.00
2018-08-31T01:14:39.570Z,95960.00
2018-08-31T01:15:11.641Z,95956.00
2018-08-31T01:15:43.774Z,95964.00
2018-08-31T01:16:15.946Z,95957.00
2018-08-31T01:16:48.132Z,95968.00
2018-08-31T01:17:20.199Z,95965.00
2018-08-31T01:17:52.359Z,95967.00
2018-08-31T01:18:24.458Z,95966.00
2018-08-31T01:18:56.581Z,95969.00
2018-08-31T01:19:28.656Z,95967.00
2018-08-31T01:20:00.736Z,95966.00
2018-08-31T01:20:32.833Z,95969.00
2018-08-31T01:21:04.924Z,95967.00
2018-08-31T01:21:37.033Z,95966.00
2018-08-31T01:22:09.149Z,95968.00
2018-08-31T01:22:41.407Z,95968.00
2018-08-31T01:23:13.541Z,95969.00
2018-08-31T01:23:45.642Z,95967.00
2018-08-31T01:24:17.883Z,95964.00
2018-08-31T01:24:50.054Z,95966.00
2018-08-31T01:25:22.300Z,95962.00
2018-08-31T01:25:54.413Z,95959.00
2018-08-31T01:26:26.608Z,95961.00
2018-08-31T01:26:58.703Z,95963.00
2018-08-31T01:27:30.966Z,95961.00
2018-08-31T01:28:03.119Z,95961.00
2018-08-31T01:28:35.181Z,95962.00
2018-08-31T01:29:07.381Z,95960.00
2018-08-31T01:29:39.570Z,95966.00
2018-08-31T01:30:11.690Z,95966.00
2018-08-31T01:30:43.935Z,95964.00
2018-08-31T01:31:15.997Z,95962.00
2018-08-31T01:31:48.117Z,95962.00
2018-08-31T01:32:20.221Z,95959.00
2018-08-31T01:32:52.308Z,95963.00
2018-08-31T01:33:24.429Z,95963.00
2018-08-31T01:33:56.490Z,95959.00
2018-08-31T01:34:28.593Z,95962.00
2018-08-31T01:35:00.692Z,95965.00
2018-08-31T01:35:32.778Z,95963.00
2018-08-31T01:36:04.886Z,95964.00
2018-08-31T01:36:37.003Z,95962.00
2018-08-31T01:37:09.364Z,95960.00
2018-08-31T01:37:41.519Z,95963.00
2018-08-31T01:38:13.610Z,95960.00
2018-08-31T01:38:45.683Z,95963.00
2018-08-31T01:39:17.774Z,95965.00
2018-08-31T01:39:49.856Z,95963.00
2018-08-31T01:40:21.979Z,95959.00
2018-08-31T01:40:54.083Z,95966.00
2018-08-31T01:41:26.167Z,95960.00
2018-08-31T01:41:58.299Z,95961.00
2018-08-31T01:42:30.460Z,95959.00
2018-08-31T01:43:02.582Z,95955.00
2018-08-31T01:43:34.775Z,95961.00
2018-08-31T01:44:06.853Z,95960.00
2018-08-31T01:44:39.032Z,95956.00
2018-08-31T01:45:11.221Z,95953.00
2018-08-31T01:45:43.338Z,95952.00
2018-08-31T01:46:15.602Z,95956.00
2018-08-31T01:46:47.705Z,95957.00
2018-08-31T01:47:19.929Z,95956.00
2018-08-31T01:47:52.164Z,95955.00
2018-08-31T01:48:24.277Z,95958.00
2018-08-31T01:48:56.716Z,95953.00
2018-08-31T01:49:28.895Z,95954.00
2018-08-31T01:50:00.965Z,95954.00
2018-08-31T01:50:33.064Z,95950.00
2018-08-31T01:51:05.229Z,95955.00
2018-08-31T01:51:37.305Z,95953.00
2018-08-31T01:52:09.641Z,95947.00
2018-08-31T01:52:41.761Z,95945.00
2018-08-31T01:53:13.817Z,95944.00
2018-08-31T01:53:45.972Z,95940.00
2018-08-31T01:54:18.090Z,95939.00
2018-08-31T01:54:50.228Z,95938.00
2018-08-31T01:55:22.422Z,95938.00
2018-08-31T01:55:54.529Z,95935.00
2018-08-31T01:56:26.618Z,95933.00
2018-08-31T01:56:58.724Z,95934.00
2018-08-31T01:57:30.829Z,95928.00
2018-08-31T01:58:02.954Z,95932.00
2018-08-31T01:58:35.093Z,95926.00
2018-08-31T01:59:07.180Z,95928.00
2018-08-31T01:59:39.428Z,95929.00
2018-08-31T02:00:11.525Z,95924.00
2018-08-31T02:00:43.758Z,95926.00
2018-08-31T02:01:15.917Z,95922.00
2018-08-31T02:01:48.266Z,95924.00
2018-08-31T02:02:20.376Z,95927.00
2018-08-31T02:02:52.547Z,95924.00
2018-08-31T02:03:24.626Z,95926.00
2018-08-31T02:03:56.767Z,95923.00
2018-08-31T02:04:29.064Z,95919.00
2018-08-31T02:05:01.158Z,95921.00
2018-08-31T02:05:33.349Z,95925.00
2018-08-31T02:06:05.480Z,95924.00
2018-08-31T02:06:37.861Z,95922.00
2018-08-31T02:07:10.129Z,95922.00
2018-08-31T02:07:42.195Z,95926.00
2018-08-31T02:08:14.281Z,95924.00
2018-08-31T02:08:46.414Z,95924.00
2018-08-31T02:09:18.499Z,95926.00
2018-08-31T02:09:50.778Z,95927.00
2018-08-31T02:10:22.890Z,95928.00
2018-08-31T02:10:54.998Z,95928.00
2018-08-31T02:11:27.069Z,95926.00
2018-08-31T02:11:59.171Z,95923.00
2018-08-31T02:12:31.448Z,95929.00
2018-08-31T02:13:03.592Z,95929.00
2018-08-31T02:13:35.790Z,95922.00
2018-08-31T02:14:08.013Z,95924.00
2018-08-31T02:14:40.121Z,95928.00
2018-08-31T02:15:12.326Z,95927.00
2018-08-31T02:15:44.410Z,95931.00
2018-08-31T02:16:16.493Z,95926.00
2018-08-31T02:16:48.607Z,95929.00
2018-08-31T02:17:20.684Z,95923.00
2018-08-31T02:17:52.805Z,95926.00
2018-08-31T02:18:24.976Z,95924.00
2018-08-31T02:18:57.199Z,95928.00
2018-08-31T02:19:29.370Z,95929.00
2018-08-31T02:20:01.507Z,95928.00
2018-08-31T02:20:33.908Z,95931.00
2018-08-31T02:21:05.983Z,95931.00
2018-08-31T02:21:38.109Z,95938.00
2018-08-31T02:22:10.296Z,95933.00
2018-08-31T02:22:42.375Z,95937.00
2018-08-31T02:23:14.515Z,95943.00
2018-08-31T02:23:46.593Z,95940.00
2018-08-31T02:24:18.690Z,95939.00
2018-08-31T02:24:50.995Z,95940.00
2018-08-31T02:25:23.139Z,95947.00
2018-08-31T02:25:55.216Z,95938.00
2018-08-31T02:26:27.291Z,95944.00
2018-08-31T02:26:59.463Z,95949.00
2018-08-31T02:27:31.589Z,95945.00
2018-08-31T02:28:03.679Z,95939.00
2018-08-31T02:28:35.866Z,95945.00
2018-08-31T02:29:07.956Z,95942.00
2018-08-31T02:29:40.050Z,95936.00
2018-08-31T02:30:12.123Z,95940.00
2018-08-31T02:30:44.225Z,95940.00
2018-08-31T02:31:16.340Z,95941.00
2018-08-31T02:31:48.483Z,95940.00
2018-08-31T02:32:20.577Z,95943.00
2018-08-31T02:32:52.735Z,95935.00
2018-08-31T02:33:24.793Z,95941.00
2018-08-31T02:33:56.872Z,95943.00
2018-08-31T02:34:29.034Z,95940.00
2018-08-31T02:35:01.142Z,95944.00
2018-08-31T02:35:33.202Z,95946.00
2018-08-31T02:36:05.273Z,95948.00
2018-08-31T02:36:37.529Z,95944.00
2018-08-31T02:37:09.636Z,95941.00
2018-08-31T02:37:41.756Z,95945.00
2018-08-31T02:38:13.859Z,95942.00
2018-08-31T02:38:45.945Z,95946.00
2018-08-31T02:39:18.217Z,95944.00
2018-08-31T02:39:50.382Z,95939.00
2018-08-31T02:40:22.460Z,95940.00
2018-08-31T02:40:54.692Z,95941.00
2018-08-31T02:41:26.755Z,95945.00
2018-08-31T02:41:58.892Z,95942.00
2018-08-31T02:42:30.945Z,95944.00
2018-08-31T02:43:03.024Z,95943.00
2018-08-31T02:43:35.363Z,95940.00
2018-08-31T02:44:07.550Z,95942.00
2018-08-31T02:44:39.709Z,95944.00
2018-08-31T02:45:11.934Z,95949.00
2018-08-31T02:45:44.177Z,95946.00
2018-08-31T02:46:16.359Z,95942.00
2018-08-31T02:46:48.538Z,95943.00
2018-08-31T02:47:20.689Z,95942.00
2018-08-31T02:47:53.350Z,95941.00
2018-08-31T02:48:25.571Z,95942.00
2018-08-31T02:48:57.849Z,95945.00
2018-08-31T02:49:30.078Z,95945.00
2018-08-31T02:50:02.145Z,95941.00
2018-08-31T02:50:34.234Z,95944.00
2018-08-31T02:51:06.328Z,95943.00
2018-08-31T02:51:38.838Z,95948.00
2018-08-31T02:52:10.886Z,95945.00
2018-08-31T02:52:43.002Z,95941.00
2018-08-31T02:53:15.154Z,95950.00
2018-08-31T02:53:47.244Z,95940.00
2018-08-31T02:54:19.398Z,95943.00
2018-08-31T02:54:51.618Z,95942.00
2018-08-31T02:55:23.915Z,95944.00
2018-08-31T02:55:56.042Z,95940.00
2018-08-31T02:56:28.206Z,95938.00
2018-08-31T02:57:00.297Z,95942.00
2018-08-31T02:57:32.394Z,95936.00
2018-08-31T02:58:04.513Z,95939.00
2018-08-31T02:58:36.736Z,95937.00
2018-08-31T02:59:08.887Z,95941.00
2018-08-31T02:59:40.974Z,95947.00
2018-08-31T03:00:13.160Z,95946.00
2018-08-31T03:00:45.333Z,95946.00
2018-08-31T03:01:17.446Z,95943.00
2018-08-31T03:01:49.648Z,95940.00
2018-08-31T03:02:21.979Z,95941.00
2018-08-31T03:02:54.085Z,95939.00
2018-08-31T03:03:26.229Z,95945.00
2018-08-31T03:03:58.341Z,95944.00
2018-08-31T03:04:30.409Z,95941.00
2018-08-31T03:05:02.512Z,95941.00
2018-08-31T03:05:34.587Z,95944.00
2018-08-31T03:06:06.686Z,95944.00
2018-08-31T03:06:38.786Z,95945.00
2018-08-31T03:07:10.887Z,95946.00
2018-08-31T03:07:42.996Z,95951.00
2018-08-31T03:08:15.278Z,95946.00
2018-08-31T03:08:47.344Z,95949.00
2018-08-31T03:09:19.572Z,95946.00
2018-08-31T03:09:51.679Z,95940.00
2018-08-31T03:10:23.818Z,95945.00
2018-08-31T03:10:55.975Z,95939.00
2018-08-31T03:11:28.040Z,95940.00
2018-08-31T03:12:00.128Z,95938.00
2018-08-31T03:12:32.229Z,95939.00
2018-08-31T03:13:04.543Z,95938.00
2018-08-31T03:13:36.654Z,95940.00
2018-08-31T03:14:08.765Z,95936.00
2018-08-31T03:14:41.016Z,95939.00
2018-08-31T03:15:13.073Z,95930.00
2018-08-31T03:15:45.144Z,95935.00
2018-08-31T03:16:17.228Z,95940.00
2018-08-31T03:16:49.339Z,95943.00
2018-08-31T03:17:21.436Z,95939.00
2018-08-31T03:17:53.625Z,95943.00
2018-08-31T03:18:25.721Z,95941.00
2018-08-31T03:18:57.806Z,95938.00
2018-08-31T03:19:29.926Z,95942.00
2018-08-31T03:20:02.034Z,95937.00
2018-08-31T03:20:34.240Z,95944.00
2018-08-31T03:21:06.485Z,95944.00
2018-08-31T03:21:38.640Z,95942.00
2018-08-31T03:22:10.758Z,95944.00
2018-08-31T03:22:42.842Z,95943.00
2018-08-31T03:23:14.909Z,95942.00
2018-08-31T03:23:47.014Z,95947.00
2018-08-31T03:24:19.310Z,95946.00
2018-08-31T03:24:51.406Z,95940.00
2018-08-31T03:25:23.650Z,95944.00
2018-08-31T03:25:55.749Z,95941.00
2018-08-31T03:26:27.801Z,95939.00
2018-08-31T03:26:59.924Z,95936.00
2018-08-31T03:27:32.041Z,95940.00
2018-08-31T03:28:04.122Z,95935.00
2018-08-31T03:28:36.209Z,95935.00
2018-08-31T03:29:08.297Z,95935.00
2018-08-31T03:29:40.502Z,95934.00
2018-08-31T03:30:12.761Z,95937.00
2018-08-31T03:30:44.954Z,95932.00
2018-08-31T03:31:17.109Z,95934.00
2018-08-31T03:31:49.187Z,95933.00
2018-08-31T03:32:21.345Z,95936.00
2018-08-31T03:32:53.477Z,95937.00
2018-08-31T03:33:25.833Z,95935.00
2018-08-31T03:33:57.940Z,95932.00
2018-08-31T03:34:30.126Z,95934.00
2018-08-31T03:35:02.256Z,95936.00
2018-08-31T03:35:34.392Z,95935.00
2018-08-31T03:36:06.542Z,95940.00
2018-08-31T03:36:38.664Z,95938.00
2018-08-31T03:37:10.768Z,95934.00
2018-08-31T03:37:42.846Z,95936.00
2018-08-31T03:38:14.922Z,95938.00
2018-08-31T03:38:46.986Z,95937.00
2018-08-31T03:39:19.099Z,95935.00
2018-08-31T03:39:51.234Z,95937.00
2018-08-31T03:40:23.310Z,95927.00
2018-08-31T03:40:55.590Z,95933.00
2018-08-31T03:41:27.678Z,95934.00
2018-08-31T03:41:59.944Z,95930.00
2018-08-31T03:42:32.017Z,95933.00
2018-08-31T03:43:04.079Z,95931.00
2018-08-31T03:43:36.240Z,95931.00
2018-08-31T03:44:08.340Z,95937.00
2018-08-31T03:44:40.417Z,95930.00
2018-08-31T03:45:12.625Z,95933.00
2018-08-31T03:45:44.702Z,95931.00
2018-08-31T03:46:16.969Z,95932.00
2018-08-31T03:46:49.064Z,95933.00
2018-08-31T03:47:21.175Z,95931.00
2018-08-31T03:47:53.265Z,95930.00
2018-08-31T03:48:25.344Z,95933.00
2018-08-31T03:48:57.433Z,95936.00
2018-08-31T03:49:29.538Z,95934.00
2018-08-31T03:50:01.648Z,95934.00
2018-08-31T03:50:33.767Z,95935.00
2018-08-31T03:51:05.945Z,95936.00
2018-08-31T03:51:38.027Z,95936.00
2018-08-31T03:52:10.118Z,95936.00
2018-08-31T03:52:42.173Z,95926.00
2018-08-31T03:53:14.299Z,95933.00
2018-08-31T03:53:46.386Z,95928.00
2018-08-31T03:54:18.517Z,95927.00
2018-08-31T03:54:50.805Z,95932.00
2018-08-31T03:55:22.876Z,95927.00
2018-08-31T03:55:54.990Z,95925.00
2018-08-31T03:56:27.066Z,95919.00
2018-08-31T03:56:59.185Z,95926.00
2018-08-31T03:57:31.282Z,95927.00
2018-08-31T03:58:03.391Z,95925.00
2018-08-31T03:58:35.629Z,95928.00
2018-08-31T03:59:07.685Z,95923.00
2018-08-31T03:59:39.805Z,95926.00
2018-08-31T04:00:11.902Z,95924.00
2018-08-31T04:00:44.143Z,95927.00
2018-08-31T04:01:16.235Z,95917.00
2018-08-31T04:01:48.460Z,95914.00
2018-08-31T04:02:20.517Z,95918.00
2018-08-31T04:02:52.634Z,95915.00
2018-08-31T04:03:24.776Z,95916.00
2018-08-31T04:03:56.847Z,95917.00
2018-08-31T04:04:29.021Z,95916.00
2018-08-31T04:05:01.086Z,95911.00
2018-08-31T04:05:33.182Z,95915.00
2018-08-31T04:06:05.264Z,95916.00
2018-08-31T04:06:37.417Z,95911.00
2018-08-31T04:07:09.583Z,95909.00
2018-08-31T04:07:41.751Z,95907.00
2018-08-31T04:08:13.857Z,95910.00
2018-08-31T04:08:45.976Z,95908.00
2018-08-31T04:09:18.202Z,95908.00
2018-08-31T04:09:50.373Z,95912.00
2018-08-31T04:10:22.457Z,95912.00
2018-08-31T04:10:54.534Z,95907.00
2018-08-31T04:11:26.646Z,95909.00
2018-08-31T04:11:58.713Z,95908.00
2018-08-31T04:12:30.838Z,95905.00
2018-08-31T04:13:03.081Z,95908.00
2018-08-31T04:13:35.482Z,95910.00
2018-08-31T04:14:07.555Z,95908.00
2018-08-31T04:14:39.840Z,95912.00
2018-08-31T04:15:12.083Z,95908.00
2018-08-31T04:15:44.285Z,95908.00
2018-08-31T04:16:16.404Z,95907.00
2018-08-31T04:16:48.669Z,95910.00
2018-08-31T04:17:20.726Z,95913.00
2018-08-31T04:17:53.102Z,95911.00
2018-08-31T04:18:25.301Z,95915.00
2018-08-31T04:18:57.412Z,95916.00
2018-08-31T04:19:29.520Z,95918.00
2018-08-31T04:20:01.618Z,95914.00
2018-08-31T04:20:33.688Z,95915.00
2018-08-31T04:21:05.813Z,95914.00
2018-08-31T04:21:37.929Z,95913.00
2018-08-31T04:22:10.310Z,95916.00
2018-08-31T04:22:42.398Z,95905.00
2018-08-31T04:23:14.516Z,95904.00
2018-08-31T04:23:46.606Z,95903.00
2018-08-31T04:24:18.768Z,95903.00
2018-08-31T04:24:51.047Z,95906.00
2018-08-31T04:25:23.230Z,95907.00
2018-08-31T04:25:55.575Z,95906.00
2018-08-31T04:26:27.688Z,95906.00
2018-08-31T04:26:59.852Z,95905.00
2018-08-31T04:27:31.979Z,95907.00
2018-08-31T04:28:04.128Z,95909.00
2018-08-31T04:28:36.238Z,95904.00
2018-08-31T04:29:08.343Z,95911.00
2018-08-31T04:29:40.627Z,95907.00
2018-08-31T04:30:13.089Z,95905.00
2018-08-31T04:30:45.354Z,95907.00
2018-08-31T04:31:17.433Z,95907.00
2018-08-31T04:31:49.614Z,95904.00
2018-08-31T04:32:21.723Z,95904.00
2018-08-31T04:32:53.807Z,95904.00
2018-08-31T04:33:25.956Z,95906.00
2018-08-31T04:33:58.153Z,95907.00
2018-08-31T04:34:30.154Z,95904.00
2018-08-31T04:35:02.255Z,95903.00
2018-08-31T04:35:34.664Z,95905.00
2018-08-31T04:36:06.783Z,95906.00
2018-08-31T04:36:38.893Z,95904.00
2018-08-31T04:37:11.042Z,95908.00
2018-08-31T04:37:43.141Z,95906.00
2018-08-31T04:38:15.218Z,95907.00
2018-08-31T04:38:47.321Z,95907.00
2018-08-31T04:39:19.417Z,95904.00
2018-08-31T04:39:51.486Z,95901.00
2018-08-31T04:40:23.561Z,95900.00
2018-08-31T04:40:55.654Z,95898.00
2018-08-31T04:41:27.720Z,95897.00
2018-08-31T04:41:59.895Z,95896.00
2018-08-31T04:42:31.951Z,95896.00
2018-08-31T04:43:04.044Z,95894.00
2018-08-31T04:43:36.124Z,95892.00
2018-08-31T04:44:08.193Z,95891.00
2018-08-31T04:44:40.309Z,95894.00
2018-08-31T04:45:12.394Z,95894.00
2018-08-31T04:45:44.554Z,95892.00
2018-08-31T04:46:16.678Z,95896.00
2018-08-31T04:46:48.789Z,95894.00
2018-08-31T04:47:20.865Z,95894.00
2018-08-31T04:47:53.020Z,95890.00
2018-08-31T04:48:25.193Z,95896.00
2018-08-31T04:48:57.496Z,95897.00
2018-08-31T04:49:29.601Z,95898.00
2018-08-31T04:50:01.710Z,95898.00
2018-08-31T04:50:33.850Z,95899.00
2018-08-31T04:51:05.929Z,95895.00
2018-08-31T04:51:38.223Z,95896.00
2018-08-31T04:52:10.301Z,95899.00
2018-08-31T04:52:42.411Z,95899.00
2018-08-31T04:53:14.477Z,95903.00
2018-08-31T04:53:46.733Z,95902.00
2018-08-31T04:54:18.870Z,95906.00
2018-08-31T04:54:50.958Z,95904.00
2018-08-31T04:55:23.046Z,95903.00
2018-08-31T04:55:55.147Z,95901.00
2018-08-31T04:56:27.342Z,95897.00
2018-08-31T04:56:59.494Z,95898.00
2018-08-31T04:57:31.705Z,95898.00
2018-08-31T04:58:03.813Z,95894.00
2018-08-31T04:58:35.900Z,95899.00
2018-08-31T04:59:08.016Z,95899.00
2018-08-31T04:59:40.234Z,95900.00
2018-08-31T05:00:12.327Z,95893.00
2018-08-31T05:00:44.573Z,95895.00
2018-08-31T05:01:16.637Z,95898.00
2018-08-31T05:01:48.761Z,95895.00
2018-08-31T05:02:20.880Z,95892.00
2018-08-31T05:02:52.967Z,95890.00
2018-08-31T05:03:25.035Z,95893.00
2018-08-31T05:03:57.145Z,95891.00
2018-08-31T05:04:29.225Z,95889.00
2018-08-31T05:05:01.454Z,95892.00
2018-08-31T05:05:33.576Z,95889.00
2018-08-31T05:06:05.714Z,95885.00
2018-08-31T05:06:37.798Z,95888.00
2018-08-31T05:07:09.974Z,95890.00
2018-08-31T05:07:42.062Z,95890.00
2018-08-31T05:08:14.157Z,95891.00
2018-08-31T05:08:46.234Z,95895.00
2018-08-31T05:09:18.433Z,95892.00
2018-08-31T05:09:50.639Z,95892.00
2018-08-31T05:10:22.725Z,95894.00
2018-08-31T05:10:54.799Z,95891.00
2018-08-31T05:11:27.014Z,95888.00
2018-08-31T05:11:59.191Z,95887.00
2018-08-31T05:12:31.306Z,95886.00
2018-08-31T05:13:03.394Z,95888.00
2018-08-31T05:13:35.515Z,95890.00
2018-08-31T05:14:07.762Z,95890.00
2018-08-31T05:14:39.849Z,95890.00
2018-08-31T05:15:11.969Z,95886.00
2018-08-31T05:15:44.050Z,95891.00
2018-08-31T05:16:16.182Z,95884.00
2018-08-31T05:16:48.408Z,95889.00
2018-08-31T05:17:20.464Z,95890.00
2018-08-31T05:17:52.641Z,95888.00
2018-08-31T05:18:24.730Z,95882.00
2018-08-31T05:18:56.843Z,95885.00
2018-08-31T05:19:29.040Z,95881.00
2018-08-31T05:20:01.112Z,95885.00
2018-08-31T05:20:33.249Z,95878.00
2018-08-31T05:21:05.388Z,95882.00
2018-08-31T05:21:37.517Z,95881.00
2018-08-31T05:22:09.714Z,95880.00
2018-08-31T05:22:41.937Z,95878.00
2018-08-31T05:23:13.990Z,95882.00
2018-08-31T05:23:46.128Z,95876.00
2018-08-31T05:24:18.209Z,95880.00
2018-08-31T05:24:50.378Z,95873.00
2018-08-31T05:25:22.502Z,95875.00
2018-08-31T05:25:54.750Z,95871.00
2018-08-31T05:26:27.057Z,95874.00
2018-08-31T05:26:59.129Z,95874.00
2018-08-31T05:27:31.346Z,95869.00
2018-08-31T05:28:03.433Z,95871.00
2018-08-31T05:28:35.538Z,95868.00
2018-08-31T05:29:07.623Z,95865.00
2018-08-31T05:29:39.867Z,95861.00
2018-08-31T05:30:12.022Z,95871.00
2018-08-31T05:30:44.118Z,95878.00
2018-08-31T05:31:16.390Z,95871.00
2018-08-31T05:31:48.512Z,95872.00
2018-08-31T05:32:20.852Z,95875.00
2018-08-31T05:32:52.947Z,95877.00
2018-08-31T05:33:25.111Z,95877.00
2018-08-31T05:33:57.220Z,95872.00
2018-08-31T05:34:29.281Z,95877.00
2018-08-31T05:35:01.436Z,95877.00
2018-08-31T05:35:33.534Z,95880.00
2018-08-31T05:36:05.641Z,95881.00
2018-08-31T05:36:37.714Z,95883.00
2018-08-31T05:37:09.791Z,95880.00
2018-08-31T05:37:41.923Z,95874.00
2018-08-31T05:38:13.940Z,95877.00
2018-08-31T05:38:46.135Z,95879.00
2018-08-31T05:39:18.390Z,95877.00
2018-08-31T05:39:50.504Z,95879.00
2018-08-31T05:40:22.614Z,95879.00
2018-08-31T05:40:54.707Z,95881.00
2018-08-31T05:41:26.940Z,95881.00
2018-08-31T05:41:59.048Z,95874.00
2018-08-31T05:42:31.230Z,95884.00
2018-08-31T05:43:03.275Z,95888.00
2018-08-31T05:43:35.405Z,95885.00
2018-08-31T05:44:07.482Z,95888.00
2018-08-31T05:44:39.662Z,95892.00
2018-08-31T05:45:11.736Z,95891.00
2018-08-31T05:45:43.897Z,95882.00
2018-08-31T05:46:16.188Z,95886.00
2018-08-31T05:46:48.546Z,95894.00
2018-08-31T05:47:20.654Z,95891.00
2018-08-31T05:47:52.754Z,95896.00
2018-08-31T05:48:25.008Z,95893.00
2018-08-31T05:48:57.113Z,95896.00
2018-08-31T05:49:29.251Z,95898.00
2018-08-31T05:50:01.411Z,95899.00
2018-08-31T05:50:33.469Z,95905.00
2018-08-31T05:51:05.613Z,95903.00
2018-08-31T05:51:37.670Z,95906.00
2018-08-31T05:52:09.827Z,95902.00
2018-08-31T05:52:41.934Z,95896.00
2018-08-31T05:53:14.023Z,95901.00
2018-08-31T05:53:46.078Z,95907.00
2018-08-31T05:54:18.333Z,95900.00
2018-08-31T05:54:50.405Z,95907.00
2018-08-31T05:55:22.472Z,95902.00
2018-08-31T05:55:54.802Z,95906.00
2018-08-31T05:56:26.908Z,95908.00
2018-08-31T05:56:59.181Z,95905.00
2018-08-31T05:57:31.283Z,95904.00
2018-08-31T05:58:03.375Z,95909.00
2018-08-31T05:58:35.467Z,95906.00
2018-08-31T05:59:07.554Z,95908.00
2018-08-31T05:59:39.666Z,95913.00
2018-08-31T06:00:11.741Z,95912.00
2018-08-31T06:00:43.876Z,95911.00
2018-08-31T06:01:15.985Z,95909.00
2018-08-31T06:01:48.068Z,95912.00
2018-08-31T06:02:20.361Z,95912.00
2018-08-31T06:02:52.454Z,95913.00
2018-08-31T06:03:24.544Z,95907.00
2018-08-31T06:03:56.637Z,95907.00
2018-08-31T06:04:28.748Z,95910.00
2018-08-31T06:05:01.047Z,95910.00
2018-08-31T06:05:33.150Z,95907.00
2018-08-31T06:06:05.254Z,95913.00
2018-08-31T06:06:37.362Z,95908.00
2018-08-31T06:07:09.622Z,95909.00
2018-08-31T06:07:41.749Z,95909.00
2018-08-31T06:08:13.827Z,95911.00
2018-08-31T06:08:46.122Z,95911.00
2018-08-31T06:09:18.233Z,95913.00
2018-08-31T06:09:50.356Z,95915.00
2018-08-31T06:10:22.708Z,95915.00
2018-08-31T06:10:54.833Z,95917.00
2018-08-31T06:11:26.965Z,95916.00
2018-08-31T06:11:59.147Z,95917.00
2018-08-31T06:12:31.166Z,95922.00
2018-08-31T06:13:03.477Z,95922.00
2018-08-31T06:13:35.633Z,95922.00
2018-08-31T06:14:07.741Z,95919.00
2018-08-31T06:14:39.945Z,95923.00
2018-08-31T06:15:12.174Z,95919.00
2018-08-31T06:15:44.405Z,95923.00
2018-08-31T06:16:16.492Z,95923.00
2018-08-31T06:16:48.591Z,95923.00
2018-08-31T06:17:20.880Z,95918.00